sensor_id;sensor_type;location;lat;lon;timestamp;P1;durP1;ratioP1;P2;durP2;ratioP2
31872;SDS011;22407;42.820;23.374;2023-08-24T00:01:34;19.20;;;13.23;;
31872;SDS011;22407;42.820;23.374;2023-08-24T00:04:00;18.97;;;12.90;;
31872;SDS011;22407;42.820;23.374;2023-08-24T00:06:25;19.80;;;13.77;;
31872;SDS011;22407;42.820;23.374;2023-08-24T00:08:50;21.20;;;13.73;;
31872;SDS011;22407;42.820;23.374;2023-08-24T00:11:15;19.20;;;13.00;;
31872;SDS011;22407;42.820;23.374;2023-08-24T00:13:41;19.47;;;13.10;;
31872;SDS011;22407;42.820;23.374;2023-08-24T00:16:11;20.23;;;13.50;;
31872;SDS011;22407;42.820;23.374;2023-08-24T00:18:36;18.53;;;13.00;;
31872;SDS011;22407;42.820;23.374;2023-08-24T00:21:02;19.17;;;13.43;;
31872;SDS011;22407;42.820;23.374;2023-08-24T00:23:27;19.47;;;13.87;;
31872;SDS011;22407;42.820;23.374;2023-08-24T00:25:53;19.87;;;13.30;;
31872;SDS011;22407;42.820;23.374;2023-08-24T00:28:18;19.80;;;13.40;;
31872;SDS011;22407;42.820;23.374;2023-08-24T00:30:44;18.77;;;13.27;;
31872;SDS011;22407;42.820;23.374;2023-08-24T00:33:09;20.63;;;13.50;;
31872;SDS011;22407;42.820;23.374;2023-08-24T00:35:34;19.57;;;13.30;;
31872;SDS011;22407;42.820;23.374;2023-08-24T00:37:59;20.27;;;14.17;;
31872;SDS011;22407;42.820;23.374;2023-08-24T00:40:25;19.15;;;13.63;;
31872;SDS011;22407;42.820;23.374;2023-08-24T00:42:50;19.83;;;13.50;;
31872;SDS011;22407;42.820;23.374;2023-08-24T00:45:15;20.97;;;13.70;;
31872;SDS011;22407;42.820;23.374;2023-08-24T00:47:42;18.80;;;12.97;;
31872;SDS011;22407;42.820;23.374;2023-08-24T00:50:07;20.77;;;13.55;;
31872;SDS011;22407;42.820;23.374;2023-08-24T00:52:33;20.42;;;13.63;;
31872;SDS011;22407;42.820;23.374;2023-08-24T00:54:59;20.23;;;13.40;;
31872;SDS011;22407;42.820;23.374;2023-08-24T00:57:25;20.65;;;13.50;;
31872;SDS011;22407;42.820;23.374;2023-08-24T00:59:50;20.35;;;13.88;;
31872;SDS011;22407;42.820;23.374;2023-08-24T01:02:16;21.23;;;14.13;;
31872;SDS011;22407;42.820;23.374;2023-08-24T01:04:41;21.97;;;14.00;;
31872;SDS011;22407;42.820;23.374;2023-08-24T01:07:10;20.40;;;14.05;;
31872;SDS011;22407;42.820;23.374;2023-08-24T01:09:35;21.45;;;13.88;;
31872;SDS011;22407;42.820;23.374;2023-08-24T01:17:12;20.85;;;13.35;;
31872;SDS011;22407;42.820;23.374;2023-08-24T01:19:43;21.20;;;13.48;;
31872;SDS011;22407;42.820;23.374;2023-08-24T01:22:20;20.10;;;13.20;;
31872;SDS011;22407;42.820;23.374;2023-08-24T01:24:51;20.90;;;13.53;;
31872;SDS011;22407;42.820;23.374;2023-08-24T01:27:18;20.77;;;13.82;;
31872;SDS011;22407;42.820;23.374;2023-08-24T01:29:44;19.92;;;13.27;;
31872;SDS011;22407;42.820;23.374;2023-08-24T01:32:10;20.55;;;13.20;;
31872;SDS011;22407;42.820;23.374;2023-08-24T01:34:37;21.02;;;13.65;;
31872;SDS011;22407;42.820;23.374;2023-08-24T01:37:03;20.48;;;13.65;;
31872;SDS011;22407;42.820;23.374;2023-08-24T01:39:29;21.87;;;14.20;;
31872;SDS011;22407;42.820;23.374;2023-08-24T01:42:00;19.77;;;14.02;;
31872;SDS011;22407;42.820;23.374;2023-08-24T01:44:27;20.75;;;13.88;;
31872;SDS011;22407;42.820;23.374;2023-08-24T01:46:53;21.20;;;14.00;;
31872;SDS011;22407;42.820;23.374;2023-08-24T01:49:19;20.27;;;13.40;;
31872;SDS011;22407;42.820;23.374;2023-08-24T01:51:44;19.50;;;13.50;;
31872;SDS011;22407;42.820;23.374;2023-08-24T01:54:11;19.23;;;13.20;;
31872;SDS011;22407;42.820;23.374;2023-08-24T01:56:36;20.58;;;13.82;;
31872;SDS011;22407;42.820;23.374;2023-08-24T01:59:02;21.20;;;13.77;;
31872;SDS011;22407;42.820;23.374;2023-08-24T02:01:28;21.67;;;13.10;;
31872;SDS011;22407;42.820;23.374;2023-08-24T02:03:53;19.33;;;13.30;;
31872;SDS011;22407;42.820;23.374;2023-08-24T02:06:18;21.23;;;13.60;;
31872;SDS011;22407;42.820;23.374;2023-08-24T02:08:43;19.73;;;13.40;;
31872;SDS011;22407;42.820;23.374;2023-08-24T02:11:09;21.13;;;13.97;;
31872;SDS011;22407;42.820;23.374;2023-08-24T02:13:35;20.57;;;13.67;;
31872;SDS011;22407;42.820;23.374;2023-08-24T02:16:01;19.10;;;12.83;;
31872;SDS011;22407;42.820;23.374;2023-08-24T02:18:26;21.45;;;13.48;;
31872;SDS011;22407;42.820;23.374;2023-08-24T02:20:52;20.60;;;14.40;;
31872;SDS011;22407;42.820;23.374;2023-08-24T02:23:17;21.30;;;14.27;;
31872;SDS011;22407;42.820;23.374;2023-08-24T02:25:42;22.63;;;14.23;;
31872;SDS011;22407;42.820;23.374;2023-08-24T02:28:08;22.13;;;14.88;;
31872;SDS011;22407;42.820;23.374;2023-08-24T02:30:36;21.73;;;14.40;;
31872;SDS011;22407;42.820;23.374;2023-08-24T02:33:02;22.07;;;14.00;;
31872;SDS011;22407;42.820;23.374;2023-08-24T02:35:27;20.33;;;14.15;;
31872;SDS011;22407;42.820;23.374;2023-08-24T02:37:53;20.63;;;13.90;;
31872;SDS011;22407;42.820;23.374;2023-08-24T02:40:20;20.48;;;14.10;;
31872;SDS011;22407;42.820;23.374;2023-08-24T02:42:45;24.03;;;14.10;;
31872;SDS011;22407;42.820;23.374;2023-08-24T02:45:10;21.10;;;14.23;;
31872;SDS011;22407;42.820;23.374;2023-08-24T02:47:36;23.23;;;14.60;;
31872;SDS011;22407;42.820;23.374;2023-08-24T02:50:02;23.75;;;14.27;;
31872;SDS011;22407;42.820;23.374;2023-08-24T02:52:27;20.37;;;13.73;;
31872;SDS011;22407;42.820;23.374;2023-08-24T02:54:52;23.47;;;14.10;;
31872;SDS011;22407;42.820;23.374;2023-08-24T02:57:17;20.97;;;14.47;;
31872;SDS011;22407;42.820;23.374;2023-08-24T02:59:43;19.83;;;13.37;;
31872;SDS011;22407;42.820;23.374;2023-08-24T03:02:09;21.38;;;14.57;;
31872;SDS011;22407;42.820;23.374;2023-08-24T03:04:34;21.30;;;14.23;;
31872;SDS011;22407;42.820;23.374;2023-08-24T03:07:00;21.33;;;13.37;;
31872;SDS011;22407;42.820;23.374;2023-08-24T03:09:25;20.17;;;13.90;;
31872;SDS011;22407;42.820;23.374;2023-08-24T03:11:50;21.33;;;14.63;;
31872;SDS011;22407;42.820;23.374;2023-08-24T03:14:16;21.20;;;14.63;;
31872;SDS011;22407;42.820;23.374;2023-08-24T03:16:41;21.80;;;14.40;;
31872;SDS011;22407;42.820;23.374;2023-08-24T03:19:06;21.43;;;14.60;;
31872;SDS011;22407;42.820;23.374;2023-08-24T03:21:32;22.25;;;14.77;;
31872;SDS011;22407;42.820;23.374;2023-08-24T03:23:57;20.60;;;14.00;;
31872;SDS011;22407;42.820;23.374;2023-08-24T03:26:23;21.27;;;14.38;;
31872;SDS011;22407;42.820;23.374;2023-08-24T03:28:48;21.43;;;13.90;;
31872;SDS011;22407;42.820;23.374;2023-08-24T03:31:14;22.58;;;14.68;;
31872;SDS011;22407;42.820;23.374;2023-08-24T03:33:39;22.33;;;14.90;;
31872;SDS011;22407;42.820;23.374;2023-08-24T03:36:05;23.40;;;15.47;;
31872;SDS011;22407;42.820;23.374;2023-08-24T03:38:30;23.33;;;14.90;;
31872;SDS011;22407;42.820;23.374;2023-08-24T03:41:04;24.07;;;15.10;;
31872;SDS011;22407;42.820;23.374;2023-08-24T03:43:33;22.75;;;13.95;;
31872;SDS011;22407;42.820;23.374;2023-08-24T03:45:59;22.90;;;14.90;;
31872;SDS011;22407;42.820;23.374;2023-08-24T03:48:25;23.43;;;15.13;;
31872;SDS011;22407;42.820;23.374;2023-08-24T03:50:53;23.33;;;14.93;;
31872;SDS011;22407;42.820;23.374;2023-08-24T03:53:18;22.52;;;14.82;;
31872;SDS011;22407;42.820;23.374;2023-08-24T03:55:46;27.30;;;15.20;;
31872;SDS011;22407;42.820;23.374;2023-08-24T03:58:12;24.45;;;13.95;;
31872;SDS011;22407;42.820;23.374;2023-08-24T04:00:37;23.67;;;14.20;;
31872;SDS011;22407;42.820;23.374;2023-08-24T04:03:03;22.53;;;14.70;;
31872;SDS011;22407;42.820;23.374;2023-08-24T04:05:28;21.27;;;14.27;;
31872;SDS011;22407;42.820;23.374;2023-08-24T04:07:53;23.17;;;14.13;;
31872;SDS011;22407;42.820;23.374;2023-08-24T04:10:19;35.70;;;14.70;;
31872;SDS011;22407;42.820;23.374;2023-08-24T04:12:44;47.33;;;15.40;;
31872;SDS011;22407;42.820;23.374;2023-08-24T04:15:09;32.03;;;15.37;;
31872;SDS011;22407;42.820;23.374;2023-08-24T04:17:35;29.60;;;15.00;;
31872;SDS011;22407;42.820;23.374;2023-08-24T04:20:01;23.30;;;14.90;;
31872;SDS011;22407;42.820;23.374;2023-08-24T04:22:26;24.27;;;15.60;;
31872;SDS011;22407;42.820;23.374;2023-08-24T04:24:51;22.43;;;14.63;;
31872;SDS011;22407;42.820;23.374;2023-08-24T04:27:17;22.37;;;14.13;;
31872;SDS011;22407;42.820;23.374;2023-08-24T04:29:42;24.52;;;14.18;;
31872;SDS011;22407;42.820;23.374;2023-08-24T04:32:07;25.53;;;15.30;;
31872;SDS011;22407;42.820;23.374;2023-08-24T04:34:33;28.25;;;16.30;;
31872;SDS011;22407;42.820;23.374;2023-08-24T04:36:58;28.80;;;16.00;;
31872;SDS011;22407;42.820;23.374;2023-08-24T04:39:23;29.73;;;15.57;;
31872;SDS011;22407;42.820;23.374;2023-08-24T04:41:49;27.55;;;15.45;;
31872;SDS011;22407;42.820;23.374;2023-08-24T04:44:14;25.93;;;15.17;;
31872;SDS011;22407;42.820;23.374;2023-08-24T04:46:40;32.50;;;16.73;;
31872;SDS011;22407;42.820;23.374;2023-08-24T04:49:05;28.23;;;17.90;;
31872;SDS011;22407;42.820;23.374;2023-08-24T04:51:30;38.78;;;16.88;;
31872;SDS011;22407;42.820;23.374;2023-08-24T04:53:55;35.40;;;16.67;;
31872;SDS011;22407;42.820;23.374;2023-08-24T04:56:21;36.70;;;17.57;;
31872;SDS011;22407;42.820;23.374;2023-08-24T04:58:53;27.93;;;16.53;;
31872;SDS011;22407;42.820;23.374;2023-08-24T05:01:19;32.10;;;16.83;;
31872;SDS011;22407;42.820;23.374;2023-08-24T05:03:44;62.57;;;33.10;;
31872;SDS011;22407;42.820;23.374;2023-08-24T05:06:10;109.33;;;59.53;;
31872;SDS011;22407;42.820;23.374;2023-08-24T05:08:35;33.63;;;19.70;;
31872;SDS011;22407;42.820;23.374;2023-08-24T05:11:00;29.10;;;17.40;;
31872;SDS011;22407;42.820;23.374;2023-08-24T05:13:25;28.43;;;17.47;;
31872;SDS011;22407;42.820;23.374;2023-08-24T05:15:51;26.10;;;16.90;;
31872;SDS011;22407;42.820;23.374;2023-08-24T05:18:16;26.53;;;16.83;;
31872;SDS011;22407;42.820;23.374;2023-08-24T05:20:41;23.93;;;15.83;;
31872;SDS011;22407;42.820;23.374;2023-08-24T05:23:06;26.47;;;16.27;;
31872;SDS011;22407;42.820;23.374;2023-08-24T05:25:32;24.97;;;16.30;;
31872;SDS011;22407;42.820;23.374;2023-08-24T05:27:59;23.93;;;15.47;;
31872;SDS011;22407;42.820;23.374;2023-08-24T05:30:24;23.70;;;16.23;;
31872;SDS011;22407;42.820;23.374;2023-08-24T05:32:50;26.80;;;16.00;;
31872;SDS011;22407;42.820;23.374;2023-08-24T05:35:15;24.40;;;15.90;;
31872;SDS011;22407;42.820;23.374;2023-08-24T05:37:40;24.87;;;16.00;;
31872;SDS011;22407;42.820;23.374;2023-08-24T05:40:06;24.63;;;16.07;;
31872;SDS011;22407;42.820;23.374;2023-08-24T05:42:31;26.05;;;16.95;;
31872;SDS011;22407;42.820;23.374;2023-08-24T05:44:57;26.13;;;16.47;;
31872;SDS011;22407;42.820;23.374;2023-08-24T05:47:22;26.37;;;16.50;;
31872;SDS011;22407;42.820;23.374;2023-08-24T05:49:47;25.40;;;16.92;;
31872;SDS011;22407;42.820;23.374;2023-08-24T05:52:12;23.63;;;16.37;;
31872;SDS011;22407;42.820;23.374;2023-08-24T05:54:38;24.60;;;16.60;;
31872;SDS011;22407;42.820;23.374;2023-08-24T05:57:04;25.48;;;16.33;;
31872;SDS011;22407;42.820;23.374;2023-08-24T05:59:29;30.73;;;17.67;;
31872;SDS011;22407;42.820;23.374;2023-08-24T06:01:55;29.13;;;19.00;;
31872;SDS011;22407;42.820;23.374;2023-08-24T06:04:20;32.43;;;19.80;;
31872;SDS011;22407;42.820;23.374;2023-08-24T06:06:45;30.25;;;19.67;;
31872;SDS011;22407;42.820;23.374;2023-08-24T06:09:11;31.83;;;19.50;;
31872;SDS011;22407;42.820;23.374;2023-08-24T06:11:36;30.27;;;18.97;;
31872;SDS011;22407;42.820;23.374;2023-08-24T06:14:01;26.50;;;17.48;;
31872;SDS011;22407;42.820;23.374;2023-08-24T06:16:27;24.83;;;16.33;;
31872;SDS011;22407;42.820;23.374;2023-08-24T06:18:53;23.08;;;15.02;;
31872;SDS011;22407;42.820;23.374;2023-08-24T06:21:18;22.77;;;15.00;;
31872;SDS011;22407;42.820;23.374;2023-08-24T06:23:43;21.47;;;14.80;;
31872;SDS011;22407;42.820;23.374;2023-08-24T06:26:09;19.77;;;14.07;;
31872;SDS011;22407;42.820;23.374;2023-08-24T06:28:35;21.67;;;14.13;;
31872;SDS011;22407;42.820;23.374;2023-08-24T06:31:00;22.05;;;13.95;;
31872;SDS011;22407;42.820;23.374;2023-08-24T06:33:29;19.30;;;13.10;;
31872;SDS011;22407;42.820;23.374;2023-08-24T06:35:58;20.30;;;14.32;;
31872;SDS011;22407;42.820;23.374;2023-08-24T06:38:23;23.48;;;14.15;;
31872;SDS011;22407;42.820;23.374;2023-08-24T06:40:48;21.57;;;14.30;;
31872;SDS011;22407;42.820;23.374;2023-08-24T06:43:14;20.77;;;13.97;;
31872;SDS011;22407;42.820;23.374;2023-08-24T06:45:43;19.70;;;13.13;;
31872;SDS011;22407;42.820;23.374;2023-08-24T06:48:08;17.50;;;12.23;;
31872;SDS011;22407;42.820;23.374;2023-08-24T06:50:34;18.00;;;12.05;;
31872;SDS011;22407;42.820;23.374;2023-08-24T06:53:01;17.15;;;12.18;;
31872;SDS011;22407;42.820;23.374;2023-08-24T06:55:28;18.55;;;12.50;;
31872;SDS011;22407;42.820;23.374;2023-08-24T06:57:53;18.35;;;12.60;;
31872;SDS011;22407;42.820;23.374;2023-08-24T07:00:19;18.70;;;13.03;;
31872;SDS011;22407;42.820;23.374;2023-08-24T07:02:45;18.38;;;12.50;;
31872;SDS011;22407;42.820;23.374;2023-08-24T07:05:10;21.10;;;13.23;;
31872;SDS011;22407;42.820;23.374;2023-08-24T07:07:37;19.30;;;12.97;;
31872;SDS011;22407;42.820;23.374;2023-08-24T07:10:02;19.43;;;13.00;;
31872;SDS011;22407;42.820;23.374;2023-08-24T07:12:28;16.00;;;12.05;;
31872;SDS011;22407;42.820;23.374;2023-08-24T07:14:54;15.67;;;11.77;;
31872;SDS011;22407;42.820;23.374;2023-08-24T07:17:19;16.53;;;12.00;;
31872;SDS011;22407;42.820;23.374;2023-08-24T07:19:45;19.03;;;11.90;;
31872;SDS011;22407;42.820;23.374;2023-08-24T07:22:10;16.30;;;11.90;;
31872;SDS011;22407;42.820;23.374;2023-08-24T07:24:36;18.92;;;11.98;;
31872;SDS011;22407;42.820;23.374;2023-08-24T07:27:02;16.53;;;12.37;;
31872;SDS011;22407;42.820;23.374;2023-08-24T07:29:28;19.00;;;12.55;;
31872;SDS011;22407;42.820;23.374;2023-08-24T07:31:53;19.03;;;13.03;;
31872;SDS011;22407;42.820;23.374;2023-08-24T07:34:18;19.30;;;12.97;;
31872;SDS011;22407;42.820;23.374;2023-08-24T07:36:44;18.60;;;13.33;;
31872;SDS011;22407;42.820;23.374;2023-08-24T07:39:11;19.40;;;13.63;;
31872;SDS011;22407;42.820;23.374;2023-08-24T07:41:37;20.17;;;13.45;;
31872;SDS011;22407;42.820;23.374;2023-08-24T07:44:02;19.27;;;12.93;;
31872;SDS011;22407;42.820;23.374;2023-08-24T07:46:28;19.77;;;12.82;;
31872;SDS011;22407;42.820;23.374;2023-08-24T07:48:53;19.57;;;13.20;;
31872;SDS011;22407;42.820;23.374;2023-08-24T07:51:19;19.45;;;13.05;;
31872;SDS011;22407;42.820;23.374;2023-08-24T07:53:44;19.57;;;13.00;;
31872;SDS011;22407;42.820;23.374;2023-08-24T07:56:10;19.10;;;13.03;;
31872;SDS011;22407;42.820;23.374;2023-08-24T07:58:35;18.58;;;13.18;;
31872;SDS011;22407;42.820;23.374;2023-08-24T08:01:01;18.80;;;12.70;;
31872;SDS011;22407;42.820;23.374;2023-08-24T08:03:26;18.27;;;12.43;;
31872;SDS011;22407;42.820;23.374;2023-08-24T08:05:52;17.80;;;12.30;;
31872;SDS011;22407;42.820;23.374;2023-08-24T08:08:17;17.57;;;12.63;;
31872;SDS011;22407;42.820;23.374;2023-08-24T08:10:42;18.07;;;12.67;;
31872;SDS011;22407;42.820;23.374;2023-08-24T08:13:08;17.47;;;12.13;;
31872;SDS011;22407;42.820;23.374;2023-08-24T08:15:35;17.63;;;11.97;;
31872;SDS011;22407;42.820;23.374;2023-08-24T08:18:01;17.10;;;12.00;;
31872;SDS011;22407;42.820;23.374;2023-08-24T08:20:26;16.88;;;11.55;;
31872;SDS011;22407;42.820;23.374;2023-08-24T08:22:51;15.93;;;11.87;;
31872;SDS011;22407;42.820;23.374;2023-08-24T08:25:17;17.47;;;12.07;;
31872;SDS011;22407;42.820;23.374;2023-08-24T08:27:43;16.58;;;11.95;;
31872;SDS011;22407;42.820;23.374;2023-08-24T08:30:08;17.30;;;11.93;;
31872;SDS011;22407;42.820;23.374;2023-08-24T08:32:34;17.60;;;11.73;;
31872;SDS011;22407;42.820;23.374;2023-08-24T08:34:59;16.40;;;11.60;;
31872;SDS011;22407;42.820;23.374;2023-08-24T08:37:26;17.48;;;11.20;;
31872;SDS011;22407;42.820;23.374;2023-08-24T08:39:51;20.47;;;11.13;;
31872;SDS011;22407;42.820;23.374;2023-08-24T08:42:16;16.67;;;11.57;;
31872;SDS011;22407;42.820;23.374;2023-08-24T08:44:42;15.20;;;11.30;;
31872;SDS011;22407;42.820;23.374;2023-08-24T08:47:09;17.23;;;11.48;;
31872;SDS011;22407;42.820;23.374;2023-08-24T08:49:36;16.52;;;11.07;;
31872;SDS011;22407;42.820;23.374;2023-08-24T08:52:02;15.30;;;11.23;;
31872;SDS011;22407;42.820;23.374;2023-08-24T08:54:28;15.07;;;10.90;;
31872;SDS011;22407;42.820;23.374;2023-08-24T08:56:54;16.33;;;10.90;;
31872;SDS011;22407;42.820;23.374;2023-08-24T08:59:19;15.83;;;11.07;;
31872;SDS011;22407;42.820;23.374;2023-08-24T09:01:45;18.20;;;11.30;;
31872;SDS011;22407;42.820;23.374;2023-08-24T09:04:12;18.00;;;11.43;;
31872;SDS011;22407;42.820;23.374;2023-08-24T09:06:37;17.52;;;11.35;;
31872;SDS011;22407;42.820;23.374;2023-08-24T09:09:04;15.53;;;10.77;;
31872;SDS011;22407;42.820;23.374;2023-08-24T09:11:29;17.88;;;11.93;;
31872;SDS011;22407;42.820;23.374;2023-08-24T09:13:54;15.90;;;11.43;;
31872;SDS011;22407;42.820;23.374;2023-08-24T09:16:20;16.77;;;11.18;;
31872;SDS011;22407;42.820;23.374;2023-08-24T09:18:46;16.40;;;10.93;;
31872;SDS011;22407;42.820;23.374;2023-08-24T09:21:12;16.97;;;11.33;;
31872;SDS011;22407;42.820;23.374;2023-08-24T09:23:38;15.87;;;11.50;;
31872;SDS011;22407;42.820;23.374;2023-08-24T09:26:07;15.57;;;11.53;;
31872;SDS011;22407;42.820;23.374;2023-08-24T09:28:33;14.23;;;10.90;;
31872;SDS011;22407;42.820;23.374;2023-08-24T09:30:59;18.77;;;11.13;;
31872;SDS011;22407;42.820;23.374;2023-08-24T09:33:25;14.65;;;11.13;;
31872;SDS011;22407;42.820;23.374;2023-08-24T09:35:54;16.20;;;11.30;;
31872;SDS011;22407;42.820;23.374;2023-08-24T09:38:23;15.57;;;11.00;;
31872;SDS011;22407;42.820;23.374;2023-08-24T09:40:52;17.10;;;11.43;;
31872;SDS011;22407;42.820;23.374;2023-08-24T09:43:17;16.48;;;11.48;;
31872;SDS011;22407;42.820;23.374;2023-08-24T09:45:49;16.77;;;11.80;;
31872;SDS011;22407;42.820;23.374;2023-08-24T09:48:17;16.77;;;11.43;;
31872;SDS011;22407;42.820;23.374;2023-08-24T09:50:44;16.70;;;11.60;;
31872;SDS011;22407;42.820;23.374;2023-08-24T09:53:11;15.50;;;11.80;;
31872;SDS011;22407;42.820;23.374;2023-08-24T09:55:40;16.73;;;11.73;;
31872;SDS011;22407;42.820;23.374;2023-08-24T09:58:08;16.73;;;11.67;;
31872;SDS011;22407;42.820;23.374;2023-08-24T10:00:34;16.67;;;12.27;;
31872;SDS011;22407;42.820;23.374;2023-08-24T10:03:00;16.65;;;11.90;;
31872;SDS011;22407;42.820;23.374;2023-08-24T10:05:26;19.85;;;12.00;;
31872;SDS011;22407;42.820;23.374;2023-08-24T10:07:53;17.20;;;12.13;;
31872;SDS011;22407;42.820;23.374;2023-08-24T10:10:19;18.75;;;12.55;;
31872;SDS011;22407;42.820;23.374;2023-08-24T10:12:47;17.48;;;12.20;;
31872;SDS011;22407;42.820;23.374;2023-08-24T10:15:13;20.10;;;11.73;;
31872;SDS011;22407;42.820;23.374;2023-08-24T10:17:39;16.95;;;11.38;;
31872;SDS011;22407;42.820;23.374;2023-08-24T10:20:05;18.15;;;11.77;;
31872;SDS011;22407;42.820;23.374;2023-08-24T10:22:34;18.83;;;12.10;;
31872;SDS011;22407;42.820;23.374;2023-08-24T10:24:59;16.87;;;11.73;;
31872;SDS011;22407;42.820;23.374;2023-08-24T10:27:25;19.37;;;11.67;;
31872;SDS011;22407;42.820;23.374;2023-08-24T10:29:51;17.55;;;11.80;;
31872;SDS011;22407;42.820;23.374;2023-08-24T10:32:17;16.13;;;10.30;;
31872;SDS011;22407;42.820;23.374;2023-08-24T10:34:43;13.67;;;8.40;;
31872;SDS011;22407;42.820;23.374;2023-08-24T10:37:09;12.30;;;8.33;;
31872;SDS011;22407;42.820;23.374;2023-08-24T10:39:46;25.93;;;9.77;;
31872;SDS011;22407;42.820;23.374;2023-08-24T10:42:12;18.23;;;10.82;;
31872;SDS011;22407;42.820;23.374;2023-08-24T10:44:38;24.60;;;11.50;;
31872;SDS011;22407;42.820;23.374;2023-08-24T10:47:14;17.75;;;11.73;;
31872;SDS011;22407;42.820;23.374;2023-08-24T10:49:40;16.90;;;11.70;;
31872;SDS011;22407;42.820;23.374;2023-08-24T10:52:18;15.18;;;9.20;;
31872;SDS011;22407;42.820;23.374;2023-08-24T10:54:45;15.93;;;8.95;;
31872;SDS011;22407;42.820;23.374;2023-08-24T10:57:17;16.83;;;9.80;;
31872;SDS011;22407;42.820;23.374;2023-08-24T10:59:42;16.05;;;9.75;;
31872;SDS011;22407;42.820;23.374;2023-08-24T11:02:08;19.47;;;9.97;;
31872;SDS011;22407;42.820;23.374;2023-08-24T11:04:43;16.38;;;10.52;;
31872;SDS011;22407;42.820;23.374;2023-08-24T11:07:27;15.48;;;9.95;;
31872;SDS011;22407;42.820;23.374;2023-08-24T11:09:52;15.80;;;10.30;;
31872;SDS011;22407;42.820;23.374;2023-08-24T11:12:18;15.77;;;10.25;;
31872;SDS011;22407;42.820;23.374;2023-08-24T11:14:50;15.53;;;10.27;;
31872;SDS011;22407;42.820;23.374;2023-08-24T11:17:24;15.90;;;10.60;;
31872;SDS011;22407;42.820;23.374;2023-08-24T11:19:50;14.43;;;10.90;;
31872;SDS011;22407;42.820;23.374;2023-08-24T11:22:18;17.42;;;11.18;;
31872;SDS011;22407;42.820;23.374;2023-08-24T11:24:44;16.48;;;11.50;;
31872;SDS011;22407;42.820;23.374;2023-08-24T11:27:09;18.02;;;11.13;;
31872;SDS011;22407;42.820;23.374;2023-08-24T11:29:35;16.97;;;11.50;;
31872;SDS011;22407;42.820;23.374;2023-08-24T11:32:00;17.17;;;11.80;;
31872;SDS011;22407;42.820;23.374;2023-08-24T11:34:25;17.83;;;12.13;;
31872;SDS011;22407;42.820;23.374;2023-08-24T11:36:51;16.17;;;11.77;;
31872;SDS011;22407;42.820;23.374;2023-08-24T11:39:17;17.57;;;11.90;;
31872;SDS011;22407;42.820;23.374;2023-08-24T11:41:55;17.52;;;12.20;;
31872;SDS011;22407;42.820;23.374;2023-08-24T11:44:22;18.40;;;11.85;;
31872;SDS011;22407;42.820;23.374;2023-08-24T11:46:47;17.57;;;12.43;;
31872;SDS011;22407;42.820;23.374;2023-08-24T11:49:12;19.17;;;12.90;;
31872;SDS011;22407;42.820;23.374;2023-08-24T11:51:38;19.42;;;13.40;;
31872;SDS011;22407;42.820;23.374;2023-08-24T11:54:03;17.93;;;12.60;;
31872;SDS011;22407;42.820;23.374;2023-08-24T11:56:29;17.17;;;11.50;;
31872;SDS011;22407;42.820;23.374;2023-08-24T11:58:54;15.23;;;10.50;;
31872;SDS011;22407;42.820;23.374;2023-08-24T12:01:20;14.87;;;10.00;;
31872;SDS011;22407;42.820;23.374;2023-08-24T12:03:45;14.87;;;10.00;;
31872;SDS011;22407;42.820;23.374;2023-08-24T12:08:40;15.87;;;10.80;;
31872;SDS011;22407;42.820;23.374;2023-08-24T12:11:16;17.15;;;10.68;;
31872;SDS011;22407;42.820;23.374;2023-08-24T12:13:48;17.25;;;10.75;;
31872;SDS011;22407;42.820;23.374;2023-08-24T12:16:17;16.55;;;10.70;;
31872;SDS011;22407;42.820;23.374;2023-08-24T12:18:46;16.67;;;11.10;;
31872;SDS011;22407;42.820;23.374;2023-08-24T12:21:12;15.48;;;10.57;;
31872;SDS011;22407;42.820;23.374;2023-08-24T12:23:38;15.65;;;10.13;;
31872;SDS011;22407;42.820;23.374;2023-08-24T12:26:03;15.60;;;10.00;;
31872;SDS011;22407;42.820;23.374;2023-08-24T12:28:32;15.05;;;9.80;;
31872;SDS011;22407;42.820;23.374;2023-08-24T12:30:57;15.85;;;10.30;;
31872;SDS011;22407;42.820;23.374;2023-08-24T12:33:26;16.15;;;10.02;;
31872;SDS011;22407;42.820;23.374;2023-08-24T12:35:51;14.40;;;9.65;;
31872;SDS011;22407;42.820;23.374;2023-08-24T12:38:17;14.38;;;9.75;;
31872;SDS011;22407;42.820;23.374;2023-08-24T12:40:42;15.23;;;9.93;;
31872;SDS011;22407;42.820;23.374;2023-08-24T12:43:08;14.83;;;9.90;;
31872;SDS011;22407;42.820;23.374;2023-08-24T12:45:33;14.43;;;9.77;;
31872;SDS011;22407;42.820;23.374;2023-08-24T12:47:59;16.07;;;10.00;;
31872;SDS011;22407;42.820;23.374;2023-08-24T12:50:24;14.43;;;9.67;;
31872;SDS011;22407;42.820;23.374;2023-08-24T12:52:49;14.50;;;9.70;;
31872;SDS011;22407;42.820;23.374;2023-08-24T12:55:20;13.80;;;10.00;;
31872;SDS011;22407;42.820;23.374;2023-08-24T12:57:45;13.57;;;9.70;;
31872;SDS011;22407;42.820;23.374;2023-08-24T13:00:11;13.77;;;10.30;;
31872;SDS011;22407;42.820;23.374;2023-08-24T13:02:37;14.83;;;10.00;;
31872;SDS011;22407;42.820;23.374;2023-08-24T13:05:02;14.60;;;10.03;;
31872;SDS011;22407;42.820;23.374;2023-08-24T13:07:29;15.30;;;10.30;;
31872;SDS011;22407;42.820;23.374;2023-08-24T13:09:54;15.50;;;10.40;;
31872;SDS011;22407;42.820;23.374;2023-08-24T13:12:19;14.47;;;9.90;;
31872;SDS011;22407;42.820;23.374;2023-08-24T13:14:45;14.20;;;10.00;;
31872;SDS011;22407;42.820;23.374;2023-08-24T13:17:10;14.48;;;10.18;;
31872;SDS011;22407;42.820;23.374;2023-08-24T13:19:36;14.10;;;10.50;;
31872;SDS011;22407;42.820;23.374;2023-08-24T13:22:01;14.20;;;10.52;;
31872;SDS011;22407;42.820;23.374;2023-08-24T13:24:27;16.23;;;11.00;;
31872;SDS011;22407;42.820;23.374;2023-08-24T13:26:52;14.00;;;10.27;;
31872;SDS011;22407;42.820;23.374;2023-08-24T13:29:17;15.48;;;10.68;;
31872;SDS011;22407;42.820;23.374;2023-08-24T13:31:42;16.17;;;10.97;;
31872;SDS011;22407;42.820;23.374;2023-08-24T13:34:08;14.30;;;10.57;;
31872;SDS011;22407;42.820;23.374;2023-08-24T13:36:34;15.75;;;10.60;;
31872;SDS011;22407;42.820;23.374;2023-08-24T13:38:59;15.50;;;10.43;;
31872;SDS011;22407;42.820;23.374;2023-08-24T13:41:24;15.07;;;10.70;;
31872;SDS011;22407;42.820;23.374;2023-08-24T13:43:49;16.40;;;10.38;;
31872;SDS011;22407;42.820;23.374;2023-08-24T13:46:15;15.17;;;10.93;;
31872;SDS011;22407;42.820;23.374;2023-08-24T13:48:40;18.70;;;11.70;;
31872;SDS011;22407;42.820;23.374;2023-08-24T13:51:05;17.70;;;11.70;;
31872;SDS011;22407;42.820;23.374;2023-08-24T13:53:30;16.67;;;11.53;;
31872;SDS011;22407;42.820;23.374;2023-08-24T13:55:56;18.77;;;11.97;;
31872;SDS011;22407;42.820;23.374;2023-08-24T13:58:21;16.30;;;11.80;;
31872;SDS011;22407;42.820;23.374;2023-08-24T14:00:47;17.50;;;11.67;;
31872;SDS011;22407;42.820;23.374;2023-08-24T14:03:12;18.08;;;11.82;;
31872;SDS011;22407;42.820;23.374;2023-08-24T14:05:40;18.60;;;11.50;;
31872;SDS011;22407;42.820;23.374;2023-08-24T14:08:06;19.48;;;11.80;;
31872;SDS011;22407;42.820;23.374;2023-08-24T14:10:32;17.33;;;11.63;;